History for KNYNEWYO1007

Gold Coast Greenwich Village, New York City, NY — Current Conditions
Daily Summary for January 20, 2019
  Current: High: Low: Average:
Temperature: 29.5°F 45.7°F 29.5°F 37.6°F
Dew Point: 18.9°F 44.2°F 18.9°F 34.8°F
Humidity: 70% 96% 70% 92%
Wind Speed: 8.7mph 10.5mph - 3.8mph
Wind Gust: 19.2mph 24.8mph - -
Wind: West - - WSW
Pressure: 29.23in 29.62in 29.00in -
Precipitation: 0.00in      
Statistics for the rest of the month
    High: Low: Average:
Temperature:   57.7°F 20.7°F 35.6°F
Dew Point:   54.7°F 4.3°F 23.7°F
Humidity:   98.0% 37.0% 65.8%
Wind Speed:   13.6mph from the WSW - 3.4mph
Wind Gust:   26.6mph from the WSW - -
Wind:   - - WSW
Pressure:   30.35in 29.00in -
Precipitation:   0.00in    
KNYNEWYO1007 Weather Graph
Tabular Data for January 20, 2019
Time Temp. Windchill Dew Point Pressure Wind Gust Humidity Rainfall
00:07 36.1°F - 32.9°F 29.61in 4.9mph 91% 0.00in
00:17 36.1°F - 32.9°F 29.62in 5.6mph 91% 0.00in
00:28 35.8°F - 32.5°F 29.61in 8.7mph 91% 0.00in
00:37 36.0°F - 32.7°F 29.57in 9.8mph 91% 0.00in
00:47 35.8°F 33.5°F 32.5°F 29.55in 8.1mph 91% 0.00in
00:58 36.0°F 32.9°F 33.1°F 29.53in 7.4mph 92% 0.00in
01:08 36.1°F 32.5°F 33.3°F 29.51in 8.1mph 92% 0.00in
01:18 36.1°F 33.0°F 33.3°F 29.52in 9.4mph 92% 0.00in
01:28 36.3°F - 33.8°F 29.54in 6.3mph 93% 0.00in
01:38 36.5°F - 34.0°F 29.54in 4.9mph 93% 0.00in
01:48 36.5°F 33.5°F 34.0°F 29.52in 9.4mph 93% 0.00in
01:58 36.5°F 34.3°F 34.0°F 29.52in 8.7mph 93% 0.00in
02:09 36.5°F - 34.0°F 29.52in 6.9mph 93% 0.00in
02:18 36.5°F - 34.0°F 29.53in 4.9mph 93% 0.00in
02:28 36.7°F - 34.5°F 29.53in 4.3mph 94% 0.00in
02:38 36.7°F 34.5°F 34.2°F 29.50in 6.3mph 93% 0.00in
02:49 36.5°F 34.3°F 34.0°F 29.45in 9.4mph 93% 0.00in
02:59 36.1°F 32.5°F 33.6°F 29.42in 13.0mph 93% 0.00in
03:08 36.0°F 32.9°F 33.4°F 29.41in 8.7mph 93% 0.00in
03:19 36.1°F 33.8°F 34.0°F 29.42in 12.5mph 94% 0.00in
03:29 36.0°F 33.7°F 33.8°F 29.40in 9.8mph 94% 0.00in
03:37 36.1°F 33.8°F 34.0°F 29.40in 15.0mph 94% 0.00in
03:46 36.3°F 34.1°F 34.2°F 29.40in 7.4mph 94% 0.00in
03:58 36.5°F - 34.3°F 29.38in 13.0mph 94% 0.00in
04:08 36.5°F 34.3°F 34.3°F 29.37in 8.1mph 94% 0.00in
04:18 36.7°F 34.5°F 34.5°F 29.35in 11.9mph 94% 0.00in
04:28 36.5°F 34.3°F 34.3°F 29.34in 8.1mph 94% 0.00in
04:43 36.5°F 34.3°F 34.3°F 29.32in 15.0mph 94% 0.00in
04:53 36.7°F 34.5°F 34.5°F 29.31in 10.5mph 94% 0.00in
05:04 36.9°F 34.7°F 34.7°F 29.31in 8.7mph 94% 0.00in
05:14 36.9°F 34.7°F 35.1°F 29.29in 9.4mph 95% 0.00in
05:23 36.7°F 34.5°F 34.5°F 29.28in 8.1mph 94% 0.00in
05:34 36.9°F 34.0°F 34.7°F 29.27in 11.2mph 94% 0.00in
05:41 36.9°F 34.0°F 35.1°F 29.24in 13.6mph 95% 0.00in
05:52 36.9°F 34.7°F 34.7°F 29.26in 6.9mph 94% 0.00in
06:01 37.0°F - 35.2°F 29.25in 8.7mph 95% 0.00in
06:11 37.2°F - 35.4°F 29.25in 4.9mph 95% 0.00in
06:21 37.4°F - 35.6°F 29.24in 6.9mph 95% 0.00in
06:32 37.6°F - 35.8°F 29.23in 6.3mph 95% 0.00in
06:42 37.9°F - 36.1°F 29.22in 5.6mph 95% 0.00in
06:51 37.9°F 35.9°F 36.1°F 29.20in 9.8mph 95% 0.00in
07:02 37.9°F - 36.1°F 29.19in 6.9mph 95% 0.00in
07:12 38.1°F - 36.3°F 29.17in 4.9mph 95% 0.00in
07:22 38.1°F - 36.3°F 29.16in 8.1mph 95% 0.00in
07:32 38.5°F - 36.7°F 29.13in 5.6mph 95% 0.00in
07:42 38.7°F - 36.9°F 29.14in 4.9mph 95% 0.00in
07:52 38.8°F - 37.0°F 29.14in 4.9mph 95% 0.00in
08:02 38.8°F - 37.0°F 29.16in 4.9mph 95% 0.00in
08:13 39.0°F - 37.2°F 29.15in 6.3mph 95% 0.00in
08:23 39.2°F - 37.4°F 29.14in 5.6mph 95% 0.00in
08:32 39.6°F - 37.8°F 29.15in 7.4mph 95% 0.00in
08:41 39.9°F 38.1°F 38.1°F 29.16in 11.9mph 95% 0.00in
08:51 40.8°F 38.4°F 39.4°F 29.09in 10.5mph 96% 0.00in
09:00 41.4°F 39.8°F 39.9°F 29.09in 8.7mph 96% 0.00in
09:11 41.9°F 39.7°F 40.5°F 29.08in 8.7mph 96% 0.00in
09:21 42.3°F 40.9°F 40.8°F 29.06in 7.4mph 96% 0.00in
09:31 42.3°F - 40.8°F 29.07in 4.3mph 96% 0.00in
09:41 42.4°F - 41.0°F 29.05in 4.9mph 96% 0.00in
09:51 43.0°F 41.7°F 41.5°F 29.04in 6.3mph 96% 0.00in
10:01 43.7°F 41.8°F 42.3°F 29.04in 7.4mph 96% 0.00in
10:11 44.1°F - 42.6°F 29.03in 4.9mph 96% 0.00in
10:22 44.4°F - 43.0°F 29.03in 4.9mph 96% 0.00in
10:32 44.8°F - 43.3°F 29.03in 5.6mph 96% 0.00in
10:41 45.1°F - 43.7°F 29.00in 6.3mph 96% 0.00in
10:51 45.5°F - 44.1°F 29.00in 6.3mph 96% 0.00in
10:57 45.7°F 44.7°F 44.2°F 29.04in 11.9mph 96% 0.00in
11:08 43.7°F 40.4°F 41.2°F 29.07in 15.4mph 93% 0.00in
11:17 41.9°F 40.4°F 39.0°F 29.06in 8.1mph 92% 0.00in
11:27 41.0°F 39.4°F 38.5°F 29.04in 11.2mph 93% 0.00in
11:38 40.3°F 37.4°F 37.8°F 29.04in 12.5mph 93% 0.00in
11:48 39.7°F 36.2°F 37.6°F 29.05in 15.0mph 94% 0.00in
11:58 38.8°F 35.7°F 36.3°F 29.06in 10.5mph 93% 0.00in
12:07 38.3°F 34.6°F 35.8°F 29.05in 9.8mph 93% 0.00in
12:18 37.6°F 34.8°F 35.1°F 29.05in 10.5mph 93% 0.00in
12:28 37.4°F 35.3°F 35.2°F 29.04in 7.4mph 94% 0.00in
12:38 37.2°F 33.3°F 35.1°F 29.05in 14.3mph 94% 0.00in
12:49 37.4°F 33.5°F 35.2°F 29.06in 9.8mph 94% 0.00in
12:58 37.8°F 35.0°F 35.6°F 29.06in 9.8mph 94% 0.00in
13:08 37.9°F 35.9°F 35.4°F 29.06in 9.8mph 93% 0.00in
13:18 38.1°F 34.3°F 35.6°F 29.07in 11.2mph 93% 0.00in
13:29 38.3°F 34.0°F 35.4°F 29.08in 16.8mph 92% 0.00in
13:39 38.5°F 33.8°F 35.2°F 29.09in 17.4mph 91% 0.00in
13:48 38.1°F 31.6°F 33.8°F 29.11in 19.2mph 88% 0.00in
14:00 37.4°F 30.7°F 32.4°F 29.11in 23.0mph 86% 0.00in
14:11 36.5°F 29.1°F 30.0°F 29.12in 19.2mph 82% 0.00in
14:21 35.8°F 30.2°F 28.2°F 29.12in 18.1mph 79% 0.00in
14:31 34.5°F 28.3°F 26.6°F 29.12in 17.4mph 78% 0.00in
14:40 33.8°F 27.0°F 25.2°F 29.15in 16.8mph 76% 0.00in
14:51 32.9°F 27.6°F 24.3°F 29.17in 17.4mph 76% 0.00in
15:01 32.0°F 24.4°F 22.8°F 29.18in 19.2mph 74% 0.00in
15:11 31.3°F 23.9°F 21.7°F 29.18in 20.6mph 73% 0.00in
15:23 30.7°F 23.7°F 21.2°F 29.19in 24.8mph 73% 0.00in
15:33 30.4°F 23.3°F 20.8°F 29.20in 16.8mph 73% 0.00in
15:44 30.2°F 23.1°F 20.3°F 29.21in 18.1mph 72% 0.00in
15:53 29.5°F 21.4°F 18.9°F 29.23in 19.2mph 70% 0.00in
Comma Delimited File
Powered by Weather Underground, Inc.